RJBBRJFU

Guest
Details From RJBB - Kansai Intl
To RJFU - Nagasaki
Flight Number -
Tags Generated
Created
Modified
Stats Distance 280 nm / 518 km
Max Altitude 0 ft / 0 m
Waypoints 3
Social Downloads 2
Likes 0
Share VATSIM

Download

Looking for another format? Having issues loading an existing format? Contact us
Advertisement - Login to hide

Notes

Generated

Route

RJBB JB RJFU

ID Type Via Altitude Latitude Longitude Leg Dist Tot Dist Heading (true) Name
O RJBB APT - 0 ft / 0 m 34.41738˚ 135.22928˚ - 0 nm - -
JB NDB - 0 ft / 0 m 32.94167˚ 129.93000˚ 279 nm 279 nm 253° / 250° OMURA NDB
O RJFU APT - 0 ft / 0 m 32.93399˚ 129.93275˚ 0 nm 279 nm 163° / 163° -

Altitude Profile

Advertisement - Login to hide

Weather


0- 5 10 15 20 25 30 35+ Temperature / ° C

Clouds and Precipitation
Forecast for 2017-12-13 18:00 UTC. Updated 2 hours ago

Ground ~20,000 ft ~40,000 ft Winds

RJBB

Details ICAO RJBB (KIX)
Name KANSAI INTL
Region Japan
Timezone Asia/Tokyo (UTC+9.0)
Stats Elevation 26 ft / 8 m (AMSL)
Location 34.433619° 135.233598°
Runways 2
Magnetic Variation 7.580° W

METAR

RJBB 131700Z 32013KT 9999 FEW015 04/M01 Q1024 BECMG 34012KT

Decode

TAF

TAF AMD RJBB 131403Z 1314/1418 35015KT 9999 FEW020 BKN045

Decode

Departure Runways

ID Width Length Bearing (true) Bearing (mag) Surface Threshold Offset Overrun Length
06L 200 ft / 61 m 13,121 ft / 3,999 m 50.86° 58.44° Asphalt 0 ft / 0 m 200 ft / 61 m
06R 200 ft / 61 m 11,481 ft / 3,499 m 50.86° 58.44° Asphalt 0 ft / 0 m 200 ft / 61 m
24L 200 ft / 61 m 11,481 ft / 3,499 m 230.88° 238.46° Asphalt 0 ft / 0 m 200 ft / 61 m
24R 200 ft / 61 m 13,121 ft / 3,999 m 230.88° 238.46° Asphalt 0 ft / 0 m 200 ft / 61 m

RJFU

Details ICAO RJFU (NGS)
Name NAGASAKI
Region Japan
Timezone Asia/Tokyo (UTC+9.0)
Stats Elevation 15 ft / 5 m (AMSL)
Location 32.922505° 129.923457°
Runways 2
Magnetic Variation 7.237° W

METAR

Not found

TAF

TAF RJFU 131105Z 1312/1418 36012KT 9999 FEW040 BECMG 1316/1318 14003KT BECMG 1400/1403 02008KT BECMG 1412/1415 14005KT

Decode

Destination Runways

ID Width Length Bearing (true) Bearing (mag) Surface Threshold Offset Overrun Length
14 200 ft / 61 m 9,851 ft / 3,003 m 138.12° 145.36° Asphalt 0 ft / 0 m 200 ft / 61 m
18 100 ft / 30 m 4,363 ft / 1,330 m 174.19° 181.43° Asphalt 245 ft / 75 m 0 ft / 0 m
32 200 ft / 61 m 9,851 ft / 3,003 m 318.14° 325.38° Asphalt 0 ft / 0 m 200 ft / 61 m
36 100 ft / 30 m 4,363 ft / 1,330 m 354.19° 1.43° Asphalt 245 ft / 75 m 0 ft / 0 m

Approach Navaids

Runway Type Ident Frequency Range Bearing (true) Bearing (mag) Slope Elevation
32 Localiser IOM 110.90 MHz 18 nm / 33 km 318.95° 326.19° - 30 ft / 9 m (AMSL)
32 Glidescope IOM 110.90 MHz 10 nm / 19 km 318.13° 325.37° 3.00° 15 ft / 5 m (AMSL)
32 DME IOM 110.90 MHz 18 nm / 33 km - - - 30 ft / 9 m (AMSL)

Popular Alternatives